Time;durP1;ratioP1;P1;durP2;ratioP2;P2;SDS_P1;SDS_P2;PMS_P1;PMS_P2;Temp;Humidity;BMP_temperature;BMP_pressure;BME280_temperature;BME280_humidity;BME280_pressure;Samples;Min_cycle;Max_cycle;Signal;HPM_P1;HPM_P2
2022/08/16 00:00:19;;;;;;;14.90;10.30;;;;;;;20.04;79.88;100606.48;1603590;88;21026;-84
2022/08/16 00:02:48;;;;;;;13.53;11.12;;;;;;;20.04;79.91;100607.81;1595868;88;21067;-84
2022/08/16 00:05:14;;;;;;;11.35;10.10;;;;;;;20.00;79.80;100607.85;1592139;88;21043;-84
2022/08/16 00:07:41;;;;;;;12.80;9.48;;;;;;;20.00;79.90;100604.31;1589970;88;21897;-84
2022/08/16 00:10:10;;;;;;;11.93;9.80;;;;;;;19.99;79.92;100606.57;1591083;88;21454;-84
2022/08/16 00:12:40;;;;;;;11.45;10.25;;;;;;;19.98;79.98;100609.67;1589906;88;21044;-83
2022/08/16 00:15:12;;;;;;;12.58;10.25;;;;;;;19.98;80.06;100605.66;1588407;88;21638;-83
2022/08/16 00:17:39;;;;;;;14.75;10.45;;;;;;;19.98;80.04;100612.80;1579578;88;21024;-83
2022/08/16 00:20:07;;;;;;;12.82;11.00;;;;;;;19.98;80.08;100616.81;1633098;87;21050;-84
2022/08/16 00:22:35;;;;;;;12.82;9.73;;;;;;;19.97;80.07;100614.61;1626399;87;20999;-84
2022/08/16 00:25:04;;;;;;;14.13;9.23;;;;;;;19.96;80.07;100612.82;1612048;86;21050;-84
2022/08/16 00:27:31;;;;;;;12.13;9.85;;;;;;;19.97;80.12;100600.34;1645155;86;21704;-84
2022/08/16 00:29:58;;;;;;;13.08;9.88;;;;;;;19.97;80.04;100593.66;1637816;86;21051;-84
2022/08/16 00:32:24;;;;;;;17.77;10.48;;;;;;;19.94;79.88;100597.73;1615851;87;20984;-84
2022/08/16 00:34:51;;;;;;;11.90;9.98;;;;;;;19.92;79.90;100603.56;1612742;87;21014;-83
2022/08/16 00:37:18;;;;;;;10.75;9.65;;;;;;;19.88;79.87;100592.04;1631211;87;22015;-84
2022/08/16 00:39:46;;;;;;;14.87;10.48;;;;;;;19.88;79.87;100598.72;1598252;87;22962;-84
2022/08/16 00:42:12;;;;;;;13.43;10.20;;;;;;;19.86;79.82;100603.63;1632869;86;21047;-83
2022/08/16 00:44:39;;;;;;;11.08;9.55;;;;;;;19.84;79.90;100601.44;1623439;87;21059;-84
2022/08/16 00:47:09;;;;;;;12.25;9.95;;;;;;;19.81;79.90;100597.05;1616885;87;21103;-84
2022/08/16 00:49:35;;;;;;;13.48;10.03;;;;;;;19.81;79.94;100604.59;1605020;88;21027;-83
2022/08/16 00:52:06;;;;;;;12.63;10.00;;;;;;;19.79;80.04;100597.06;1613503;88;21759;-83
2022/08/16 00:54:33;;;;;;;18.12;10.63;;;;;;;19.81;80.10;100598.38;1618587;88;21015;-84
2022/08/16 00:57:02;;;;;;;11.68;10.18;;;;;;;19.79;80.08;100598.86;1597872;88;21060;-84
2022/08/16 00:59:34;;;;;;;12.58;9.80;;;;;;;19.77;80.09;100595.33;1593436;88;21042;-84
2022/08/16 01:02:02;;;;;;;11.95;9.85;;;;;;;19.76;80.18;100596.22;1595257;88;21105;-84
2022/08/16 01:04:28;;;;;;;11.85;10.00;;;;;;;19.73;80.22;100599.84;1590988;88;22632;-84
2022/08/16 01:06:55;;;;;;;11.05;8.48;;;;;;;19.70;80.16;100593.63;1600414;88;21499;-84
2022/08/16 01:09:22;;;;;;;12.73;9.58;;;;;;;19.67;80.15;100590.98;1600077;88;21036;-84
2022/08/16 01:11:51;;;;;;;16.02;9.70;;;;;;;19.61;80.06;100586.19;1593612;88;21514;-83
2022/08/16 01:14:22;;;;;;;13.98;9.45;;;;;;;19.58;80.11;100591.56;1604689;88;21063;-84
2022/08/16 01:16:52;;;;;;;12.43;9.78;;;;;;;19.59;80.23;100591.11;1605959;88;21838;-84
2022/08/16 01:19:29;;;;;;;13.93;9.83;;;;;;;19.55;80.23;100588.92;1606609;88;21043;-84
2022/08/16 01:22:19;;;;;;;10.32;9.18;;;;;;;19.55;80.25;100588.05;1589071;88;21052;-84
2022/08/16 01:24:50;;;;;;;12.00;9.80;;;;;;;19.51;80.25;100581.88;1600217;88;21047;-84
2022/08/16 01:27:32;;;;;;;11.50;9.25;;;;;;;19.50;80.30;100581.46;1597407;88;21033;-84
2022/08/16 01:30:07;;;;;;;10.95;9.05;;;;;;;19.47;80.30;100579.29;1575968;88;21926;-83
2022/08/16 01:32:37;;;;;;;10.50;9.40;;;;;;;19.43;80.35;100577.98;1607169;88;21038;-83
2022/08/16 01:35:23;;;;;;;14.23;10.13;;;;;;;19.42;80.41;100576.66;1596911;88;21052;-84
2022/08/16 01:37:53;;;;;;;14.23;8.83;;;;;;;19.41;80.43;100577.59;1616357;88;21601;-83
2022/08/16 01:40:24;;;;;;;11.15;9.98;;;;;;;19.40;80.46;100576.68;1619180;88;21043;-84
2022/08/16 01:42:51;;;;;;;12.98;9.85;;;;;;;19.38;80.46;100571.82;1623777;88;21721;-84
2022/08/16 01:45:18;;;;;;;13.10;9.58;;;;;;;19.35;80.48;100567.88;1619099;88;21075;-84
2022/08/16 01:47:46;;;;;;;12.93;9.83;;;;;;;19.33;80.52;100565.69;1609800;88;21039;-83
2022/08/16 01:50:13;;;;;;;16.23;9.78;;;;;;;19.34;80.60;100569.23;1612382;88;21022;-84
2022/08/16 01:52:40;;;;;;;12.43;9.38;;;;;;;19.32;80.61;100570.58;1594890;89;21060;-84
2022/08/16 01:55:07;;;;;;;10.82;8.98;;;;;;;19.32;80.59;100565.70;1611732;88;22543;-83
2022/08/16 01:57:34;;;;;;;10.45;9.35;;;;;;;19.29;80.58;100567.94;1604771;88;21032;-83
2022/08/16 02:00:01;;;;;;;10.78;9.68;;;;;;;19.26;80.54;100564.00;1605599;88;21042;-84
2022/08/16 02:02:30;;;;;;;12.15;10.50;;;;;;;19.23;80.55;100570.24;1584973;88;21094;-84
2022/08/16 02:04:58;;;;;;;15.08;10.20;;;;;;;19.18;80.56;100568.11;1585223;88;21169;-83
2022/08/16 02:07:25;;;;;;;10.23;9.20;;;;;;;19.14;80.64;100565.48;1587304;88;21941;-83
2022/08/16 02:09:53;;;;;;;13.10;9.75;;;;;;;19.14;80.72;100559.69;1575962;88;21568;-84
2022/08/16 02:12:19;;;;;;;10.90;9.83;;;;;;;19.14;80.79;100571.70;1608510;87;21504;-84
2022/08/16 02:14:46;;;;;;;10.55;9.48;;;;;;;19.15;80.73;100577.48;1606915;87;21188;-83
2022/08/16 02:17:13;;;;;;;13.68;9.88;;;;;;;19.16;80.84;100577.02;1613498;87;21018;-83
2022/08/16 02:19:41;;;;;;;11.45;10.25;;;;;;;19.14;80.77;100578.37;1604941;87;21982;-83
2022/08/16 02:22:12;;;;;;;16.23;10.28;;;;;;;19.12;80.75;100573.97;1600038;88;21113;-83
2022/08/16 02:24:42;;;;;;;10.95;9.83;;;;;;;19.09;80.76;100572.23;1599959;87;21121;-84
2022/08/16 02:27:09;;;;;;;10.95;9.68;;;;;;;19.08;80.77;100567.78;1602200;87;22355;-83
2022/08/16 02:29:36;;;;;;;12.13;10.35;;;;;;;19.07;80.81;100563.38;1618960;87;22413;-83
2022/08/16 02:32:03;;;;;;;11.93;10.43;;;;;;;19.04;80.78;100568.73;1618942;87;21600;-83
2022/08/16 02:34:33;;;;;;;15.28;9.98;;;;;;;19.01;80.89;100568.33;1618915;87;21161;-83
2022/08/16 02:36:58;;;;;;;14.83;9.98;;;;;;;19.01;81.02;100570.09;1618542;87;21097;-83
2022/08/16 02:39:28;;;;;;;12.75;10.38;;;;;;;19.03;81.14;100564.28;1618912;86;21092;-83
2022/08/16 02:41:53;;;;;;;15.53;9.93;;;;;;;19.03;81.10;100562.95;1616532;87;21130;-83
2022/08/16 02:44:20;;;;;;;13.53;9.25;;;;;;;19.03;81.07;100562.52;1579753;88;21933;-83
2022/08/16 02:46:47;;;;;;;13.93;10.78;;;;;;;19.05;81.14;100557.17;1637603;87;21094;-83
2022/08/16 02:49:13;;;;;;;14.78;10.18;;;;;;;19.02;81.12;100559.88;1600728;88;21883;-83
2022/08/16 02:51:40;;;;;;;12.55;9.68;;;;;;;19.01;81.13;100563.42;1610943;87;21091;-83
2022/08/16 02:54:07;;;;;;;10.95;9.85;;;;;;;18.99;81.08;100565.23;1585738;90;21079;-83
2022/08/16 02:56:34;;;;;;;15.95;9.85;;;;;;;18.95;81.05;100566.18;1587852;90;22619;-83
2022/08/16 02:59:01;;;;;;;15.32;10.43;;;;;;;18.93;81.09;100559.98;1587800;90;20999;-82
2022/08/16 03:01:31;;;;;;;15.23;11.53;;;;;;;18.92;81.16;100560.88;1586953;88;22330;-82
2022/08/16 03:04:00;;;;;;;13.20;11.15;;;;;;;18.94;81.33;100551.06;1583841;88;21683;-82
2022/08/16 03:06:27;;;;;;;19.42;11.57;;;;;;;18.94;81.36;100557.73;1594576;88;21106;-82
2022/08/16 03:08:57;;;;;;;17.35;11.18;;;;;;;18.95;81.42;100558.18;1588228;88;21778;-82
2022/08/16 03:11:22;;;;;;;12.45;11.08;;;;;;;18.95;81.45;100556.38;1557051;89;22060;-82
2022/08/16 03:13:52;;;;;;;21.60;11.70;;;;;;;18.96;81.48;100559.95;1568614;89;21161;-83
2022/08/16 03:16:20;;;;;;;14.25;11.00;;;;;;;18.97;81.49;100564.38;1553932;89;21051;-82
2022/08/16 03:18:46;;;;;;;14.60;11.33;;;;;;;18.97;81.52;100560.38;1598349;88;21050;-82
2022/08/16 03:21:13;;;;;;;12.28;10.98;;;;;;;19.00;81.60;100553.22;1579237;88;22724;-82
2022/08/16 03:23:40;;;;;;;12.65;10.58;;;;;;;19.01;81.48;100548.75;1599385;88;21279;-83
2022/08/16 03:26:14;;;;;;;15.25;11.12;;;;;;;19.01;81.53;100552.33;1584777;88;21058;-83
2022/08/16 03:28:41;;;;;;;13.85;11.40;;;;;;;19.03;81.59;100549.61;1597738;88;21076;-83
2022/08/16 03:31:08;;;;;;;14.83;10.38;;;;;;;19.06;81.64;100547.38;1600528;88;21064;-83
2022/08/16 03:33:38;;;;;;;14.50;10.58;;;;;;;19.08;81.64;100543.77;1591055;88;22563;-83
2022/08/16 03:36:05;;;;;;;14.90;11.03;;;;;;;19.12;81.68;100551.29;1579027;88;21045;-83
2022/08/16 03:38:35;;;;;;;12.35;10.18;;;;;;;19.14;81.66;100562.36;1600234;87;21031;-82
2022/08/16 03:41:05;;;;;;;13.80;10.38;;;;;;;19.17;81.63;100570.80;1563539;89;21088;-83
2022/08/16 03:43:31;;;;;;;13.60;10.48;;;;;;;19.21;81.62;100569.39;1571387;89;21502;-83
2022/08/16 03:45:57;;;;;;;15.40;10.93;;;;;;;19.23;81.44;100572.04;1570365;89;22404;-83
2022/08/16 03:48:28;;;;;;;15.53;10.78;;;;;;;19.26;81.44;100575.10;1583191;88;21536;-82
2022/08/16 03:50:58;;;;;;;12.58;10.08;;;;;;;19.30;81.38;100575.52;1585062;89;21470;-83
2022/08/16 03:53:24;;;;;;;13.13;11.25;;;;;;;19.34;81.39;100575.44;1599429;87;21059;-83
2022/08/16 03:55:54;;;;;;;16.12;10.43;;;;;;;19.43;81.36;100585.12;1602235;88;21088;-83
2022/08/16 03:58:21;;;;;;;14.53;10.78;;;;;;;19.50;81.33;100584.56;1590528;89;21704;-83
2022/08/16 04:00:48;;;;;;;15.00;10.20;;;;;;;19.60;81.36;100585.75;1585457;89;21038;-83
2022/08/16 04:03:15;;;;;;;14.13;10.93;;;;;;;19.73;81.42;100585.14;1584108;89;21084;-83
2022/08/16 04:05:50;;;;;;;12.75;9.73;;;;;;;20.02;81.90;100574.91;1584094;89;21028;-83
2022/08/16 04:08:20;;;;;;;17.62;10.63;;;;;;;20.58;82.27;100580.56;1596373;87;21156;-83
2022/08/16 04:10:48;;;;;;;15.28;10.10;;;;;;;21.42;82.45;100579.77;1602347;88;21786;-83
2022/08/16 04:13:15;;;;;;;15.63;10.60;;;;;;;22.33;80.23;100585.65;1592971;88;21177;-83
2022/08/16 04:15:41;;;;;;;11.97;9.95;;;;;;;22.33;80.23;100585.65;1598886;88;21552;-83
2022/08/16 04:18:08;;;;;;;13.93;10.20;;;;;;;23.02;79.67;100590.45;1619416;87;21125;-83
2022/08/16 04:20:37;;;;;;;12.43;8.75;;;;;;;23.81;79.03;100584.95;1622489;87;21177;-83
2022/08/16 04:23:04;;;;;;;14.53;9.80;;;;;;;24.76;78.45;100588.04;1616691;87;21715;-83
2022/08/16 04:25:30;;;;;;;13.40;9.95;;;;;;;25.38;76.07;100592.89;1616314;87;21089;-84
2022/08/16 04:27:57;;;;;;;10.32;8.83;;;;;;;25.92;75.36;100602.91;1607787;87;21028;-84
2022/08/16 04:30:24;;;;;;;11.28;8.73;;;;;;;26.70;74.72;100599.17;1623572;87;21595;-83
2022/08/16 04:32:50;;;;;;;10.48;9.15;;;;;;;27.59;73.78;100596.89;1618520;87;21725;-82
2022/08/16 04:35:19;;;;;;;13.88;8.28;;;;;;;28.48;71.73;100600.58;1608916;87;22589;-80
2022/08/16 04:37:46;;;;;;;10.10;9.05;;;;;;;29.25;70.31;100602.80;1610012;87;21149;-81
2022/08/16 04:40:12;;;;;;;11.15;9.80;;;;;;;29.99;68.80;100599.11;1609651;87;21105;-80
2022/08/16 04:42:41;;;;;;;13.93;9.98;;;;;;;30.69;67.13;100610.34;1607777;88;21097;-80
2022/08/16 04:45:09;;;;;;;10.28;9.18;;;;;;;31.37;65.94;100615.15;1596836;87;21145;-83
2022/08/16 04:47:36;;;;;;;12.98;9.38;;;;;;;32.03;64.63;100607.27;1629439;87;22282;-83
2022/08/16 04:50:07;;;;;;;19.48;9.55;;;;;;;32.70;63.22;100611.84;1624156;87;20938;-80
2022/08/16 04:52:34;;;;;;;10.13;9.13;;;;;;;33.19;61.37;100608.86;1628411;87;21959;-84
2022/08/16 04:55:05;;;;;;;13.10;9.58;;;;;;;33.60;59.81;100603.56;1625548;87;21568;-84
2022/08/16 04:57:31;;;;;;;13.58;9.65;;;;;;;34.07;58.97;100609.59;1621413;87;21039;-84
2022/08/16 04:59:58;;;;;;;10.68;9.43;;;;;;;34.54;57.01;100609.68;1615355;87;21505;-83
2022/08/16 05:02:25;;;;;;;13.85;9.00;;;;;;;34.84;55.75;100610.52;1604137;87;21506;-84
2022/08/16 05:04:51;;;;;;;10.32;8.63;;;;;;;35.13;54.94;100613.28;1608369;87;21073;-84
2022/08/16 05:07:20;;;;;;;12.45;9.10;;;;;;;35.53;53.48;100611.41;1603805;89;21043;-83
2022/08/16 05:09:48;;;;;;;10.13;9.13;;;;;;;35.84;52.65;100612.52;1628674;86;21067;-84
2022/08/16 05:12:20;;;;;;;11.78;9.38;;;;;;;36.20;51.63;100612.66;1611788;88;22543;-84
2022/08/16 05:14:46;;;;;;;12.18;9.68;;;;;;;36.52;50.49;100613.13;1592077;89;21068;-84
2022/08/16 05:17:13;;;;;;;9.83;8.95;;;;;;;36.85;49.63;100609.85;1595457;87;21035;-84
2022/08/16 05:19:39;;;;;;;11.93;9.28;;;;;;;37.15;49.03;100613.14;1596361;88;21783;-84
2022/08/16 05:22:06;;;;;;;12.23;9.23;;;;;;;37.51;47.92;100614.07;1605054;88;21096;-84
2022/08/16 05:24:33;;;;;;;9.55;8.43;;;;;;;37.75;46.89;100612.36;1595713;88;21737;-84
2022/08/16 05:26:59;;;;;;;10.75;8.65;;;;;;;37.95;46.46;100615.12;1637103;87;21012;-84
2022/08/16 05:29:26;;;;;;;11.93;9.90;;;;;;;38.00;45.33;100616.44;1638620;87;21007;-84
2022/08/16 05:31:54;;;;;;;12.35;9.05;;;;;;;37.36;44.59;100619.08;1641197;86;21476;-84
2022/08/16 05:34:21;;;;;;;13.15;9.38;;;;;;;36.51;44.03;100621.00;1615641;88;21497;-84
2022/08/16 05:36:54;;;;;;;11.68;8.65;;;;;;;35.37;43.81;100625.50;1596242;88;22584;-84
2022/08/16 05:39:19;;;;;;;10.70;9.58;;;;;;;34.20;44.54;100620.96;1581683;88;21059;-84
2022/08/16 05:41:46;;;;;;;11.45;10.10;;;;;;;33.22;45.20;100618.16;1595828;88;21018;-83
2022/08/16 05:44:14;;;;;;;19.70;10.08;;;;;;;32.42;46.09;100616.94;1593574;88;21076;-84
2022/08/16 05:46:43;;;;;;;10.10;8.48;;;;;;;31.80;46.59;100622.86;1591311;89;21608;-83
2022/08/16 05:49:11;;;;;;;11.75;10.55;;;;;;;31.11;47.34;100615.95;1619625;88;21717;-84
2022/08/16 05:51:39;;;;;;;16.23;10.35;;;;;;;30.61;48.10;100615.36;1604448;88;21071;-83
2022/08/16 05:54:13;;;;;;;11.68;10.53;;;;;;;30.09;48.57;100620.70;1618652;88;21031;-83
2022/08/16 05:56:39;;;;;;;11.33;10.23;;;;;;;29.54;49.07;100615.20;1620322;88;21495;-83
2022/08/16 05:59:06;;;;;;;11.95;10.75;;;;;;;29.03;49.78;100622.04;1579499;89;21510;-83
2022/08/16 06:01:36;;;;;;;11.97;10.88;;;;;;;28.65;50.61;100622.74;1576421;89;21702;-83
2022/08/16 06:04:03;;;;;;;14.40;10.85;;;;;;;28.43;51.32;100614.82;1595181;88;21441;-83
2022/08/16 06:06:30;;;;;;;12.45;11.30;;;;;;;28.10;51.76;100614.25;1599205;88;21043;-83
2022/08/16 06:08:57;;;;;;;12.60;11.33;;;;;;;27.85;52.24;100617.25;1596875;88;21587;-83
2022/08/16 06:11:23;;;;;;;13.98;11.55;;;;;;;27.64;52.93;100617.83;1592481;88;21126;-83
2022/08/16 06:13:50;;;;;;;17.35;11.90;;;;;;;27.36;53.27;100611.03;1588993;88;21803;-83
2022/08/16 06:16:17;;;;;;;13.35;12.00;;;;;;;27.18;53.87;100612.75;1589898;88;21135;-84
2022/08/16 06:18:43;;;;;;;16.60;12.05;;;;;;;27.03;54.30;100616.13;1595412;89;21578;-83
2022/08/16 06:21:12;;;;;;;14.25;12.80;;;;;;;26.88;54.58;100612.30;1587429;88;21573;-83
2022/08/16 06:23:39;;;;;;;14.55;12.73;;;;;;;26.65;54.92;100611.50;1611619;88;21150;-83
2022/08/16 06:26:06;;;;;;;14.80;12.25;;;;;;;26.48;55.39;100618.09;1607372;87;21806;-83
2022/08/16 06:28:33;;;;;;;15.32;12.13;;;;;;;26.33;55.89;100610.18;1574496;89;21095;-83
2022/08/16 06:31:00;;;;;;;17.52;13.88;;;;;;;26.25;56.37;100610.99;1586970;88;21085;-83
2022/08/16 06:33:26;;;;;;;14.73;13.22;;;;;;;26.14;56.64;100612.30;1566980;88;21189;-83
2022/08/16 06:35:54;;;;;;;16.40;13.95;;;;;;;26.05;57.04;100617.21;1593594;88;21038;-83
2022/08/16 06:38:21;;;;;;;20.57;13.32;;;;;;;25.96;57.30;100618.02;1598838;88;21803;-83
2022/08/16 06:40:48;;;;;;;14.10;12.60;;;;;;;25.93;57.67;100622.17;1594947;88;21093;-83
2022/08/16 06:43:15;;;;;;;19.48;13.55;;;;;;;25.91;57.94;100620.45;1595369;88;21194;-83
2022/08/16 06:45:42;;;;;;;15.63;14.03;;;;;;;25.89;58.15;100620.52;1597289;88;21169;-83
2022/08/16 06:48:09;;;;;;;17.00;15.10;;;;;;;25.83;58.40;100628.86;1593832;88;21155;-83
2022/08/16 06:50:36;;;;;;;19.32;14.47;;;;;;;25.78;58.62;100631.73;1594282;88;22612;-83
2022/08/16 06:53:06;;;;;;;21.02;14.78;;;;;;;25.69;58.91;100623.13;1589208;88;21150;-84
2022/08/16 06:55:37;;;;;;;14.68;13.18;;;;;;;25.70;59.28;100623.56;1588942;88;21113;-83
2022/08/16 06:58:09;;;;;;;15.58;13.40;;;;;;;25.73;59.60;100622.06;1588479;88;21113;-83
2022/08/16 07:00:37;;;;;;;14.45;12.93;;;;;;;25.78;59.84;100623.64;1588146;88;21137;-83
2022/08/16 07:03:05;;;;;;;16.07;14.33;;;;;;;25.85;59.86;100635.55;1600299;88;22631;-83
2022/08/16 07:05:33;;;;;;;18.15;14.90;;;;;;;25.89;60.04;100639.39;1584943;89;21134;-83
2022/08/16 07:08:03;;;;;;;16.82;14.98;;;;;;;25.93;60.09;100633.44;1596475;88;21609;-83
2022/08/16 07:10:31;;;;;;;15.72;14.33;;;;;;;25.88;60.09;100640.80;1619888;88;21539;-83
2022/08/16 07:12:57;;;;;;;17.30;14.95;;;;;;;25.86;60.16;100639.50;1598414;88;21097;-83
2022/08/16 07:15:24;;;;;;;16.90;15.13;;;;;;;25.86;60.30;100638.63;1600419;88;22639;-86
2022/08/16 07:17:53;;;;;;;16.93;15.32;;;;;;;25.79;60.40;100629.94;1594014;88;21110;-82
2022/08/16 07:20:21;;;;;;;17.10;15.30;;;;;;;25.80;60.54;100639.76;1592830;88;21577;-83
2022/08/16 07:22:48;;;;;;;17.07;15.40;;;;;;;25.83;60.81;100645.04;1589597;88;22387;-83
2022/08/16 07:25:15;;;;;;;22.62;16.02;;;;;;;25.86;60.93;100645.38;1590793;88;21371;-83
2022/08/16 07:27:42;;;;;;;16.77;14.93;;;;;;;25.89;60.99;100645.27;1591614;88;21875;-83
2022/08/16 07:30:11;;;;;;;17.57;15.18;;;;;;;25.87;60.98;100637.23;1589970;88;21129;-83
2022/08/16 07:32:40;;;;;;;18.82;15.18;;;;;;;25.88;61.19;100646.19;1596601;88;21243;-83
2022/08/16 07:35:10;;;;;;;15.65;14.15;;;;;;;25.88;61.32;100645.70;1593156;87;21516;-83
2022/08/16 07:37:36;;;;;;;16.75;15.00;;;;;;;25.88;61.38;100645.70;1593198;88;21122;-83
2022/08/16 07:40:04;;;;;;;16.85;14.98;;;;;;;25.96;61.67;100645.46;1592619;88;22946;-82
2022/08/16 07:42:31;;;;;;;17.87;15.98;;;;;;;26.01;61.58;100641.21;1585867;88;21102;-83
2022/08/16 07:44:57;;;;;;;20.23;16.65;;;;;;;26.07;61.76;100642.30;1595672;88;21142;-83
2022/08/16 07:47:30;;;;;;;17.35;15.65;;;;;;;26.10;61.56;100647.58;1596786;88;21123;-83
2022/08/16 07:49:55;;;;;;;16.82;15.23;;;;;;;26.09;61.57;100648.06;1557894;89;21149;-83
2022/08/16 07:52:22;;;;;;;17.73;14.58;;;;;;;26.12;61.82;100647.05;1593686;88;21788;-82
2022/08/16 07:54:50;;;;;;;17.30;15.45;;;;;;;26.19;61.84;100648.07;1593820;88;22187;-83
2022/08/16 07:57:19;;;;;;;16.73;14.65;;;;;;;26.24;61.93;100641.16;1594275;88;21766;-83
2022/08/16 07:59:47;;;;;;;17.07;14.45;;;;;;;26.32;62.04;100644.39;1593148;88;39275;-83
2022/08/16 08:02:15;;;;;;;16.95;14.65;;;;;;;26.37;62.07;100649.12;1593834;88;21687;-83
2022/08/16 08:04:42;;;;;;;16.20;14.33;;;;;;;26.47;61.99;100656.84;1594473;88;21806;-82
2022/08/16 08:07:08;;;;;;;15.18;13.68;;;;;;;26.46;61.84;100654.59;1594119;88;21125;-83
2022/08/16 08:09:35;;;;;;;17.37;15.03;;;;;;;26.52;62.11;100658.40;1595770;88;22158;-83
2022/08/16 08:12:02;;;;;;;15.65;13.90;;;;;;;26.66;62.26;100663.70;1593302;88;21603;-82
2022/08/16 08:14:32;;;;;;;20.65;13.75;;;;;;;26.76;62.12;100660.52;1593535;88;21703;-83
2022/08/16 08:17:03;;;;;;;13.90;12.58;;;;;;;26.83;61.70;100663.83;1594824;88;21793;-83
2022/08/16 08:19:26;;;;;;;19.50;13.53;;;;;;;26.90;61.76;100661.75;1592935;88;21132;-83
2022/08/16 08:21:53;;;;;;;15.05;13.22;;;;;;;27.02;61.76;100660.31;1592342;88;21122;-83
2022/08/16 08:24:21;;;;;;;15.30;13.85;;;;;;;27.13;61.75;100662.93;1596085;88;21254;-82
2022/08/16 08:26:49;;;;;;;15.00;13.60;;;;;;;27.17;61.34;100665.50;1592262;88;21121;-83
2022/08/16 08:29:21;;;;;;;15.15;13.80;;;;;;;27.16;61.20;100670.04;1595558;88;22993;-81
2022/08/16 08:31:47;;;;;;;14.70;13.25;;;;;;;27.19;61.29;100668.53;1590495;88;21022;-82
2022/08/16 08:34:17;;;;;;;14.68;13.22;;;;;;;27.23;61.34;100664.73;1593149;88;21133;-81
2022/08/16 08:36:42;;;;;;;18.12;13.93;;;;;;;27.30;61.09;100669.43;1595277;88;21118;-81
2022/08/16 08:39:09;;;;;;;14.20;12.80;;;;;;;27.33;61.15;100665.25;1594689;88;21110;-81
2022/08/16 08:41:41;;;;;;;13.80;12.25;;;;;;;27.42;61.13;100660.73;1595151;88;21776;-82
2022/08/16 08:44:54;;;;;;;15.80;12.95;;;;;;;27.53;61.23;100662.45;1577906;89;21065;-82
2022/08/16 08:47:34;;;;;;;13.58;12.28;;;;;;;27.65;61.09;100664.21;1549396;89;21285;-82
2022/08/16 08:50:12;;;;;;;16.37;12.05;;;;;;;27.66;60.61;100663.25;1551278;90;21114;-82
2022/08/16 08:52:43;;;;;;;20.82;12.82;;;;;;;27.72;60.66;100653.02;1588611;88;21122;-82
2022/08/16 08:55:26;;;;;;;16.75;12.58;;;;;;;27.81;60.49;100659.80;1614833;87;21173;-82
2022/08/16 08:57:51;;;;;;;15.13;13.65;;;;;;;27.79;60.12;100656.78;1607771;87;21213;-82
2022/08/16 09:00:19;;;;;;;17.60;13.68;;;;;;;27.80;60.19;100658.06;1591289;88;21186;-88
2022/08/16 09:02:46;;;;;;;17.17;12.65;;;;;;;27.80;60.11;100644.98;1593836;88;21600;-88
2022/08/16 09:05:15;;;;;;;15.85;12.82;;;;;;;27.88;60.07;100657.69;1596866;88;21122;-89
2022/08/16 09:07:44;;;;;;;16.17;12.93;;;;;;;27.92;60.00;100655.26;1593534;88;21758;-88
2022/08/16 09:10:16;;;;;;;16.23;11.55;;;;;;;27.99;60.07;100651.31;1592809;88;21173;-89
2022/08/16 09:12:42;;;;;;;14.95;12.18;;;;;;;28.08;60.07;100647.25;1591994;88;21907;-89
2022/08/16 09:15:14;;;;;;;17.12;11.70;;;;;;;28.17;59.98;100645.92;1592345;88;21091;-89
2022/08/16 09:17:41;;;;;;;16.10;14.45;;;;;;;28.27;59.88;100646.74;1589046;88;21713;-88
2022/08/16 09:20:12;;;;;;;13.20;11.97;;;;;;;28.36;59.66;100636.39;1598103;88;21840;-88
2022/08/16 09:22:38;;;;;;;14.93;12.15;;;;;;;28.46;59.65;100641.75;1593283;88;21137;-85
2022/08/16 09:25:08;;;;;;;13.35;12.10;;;;;;;28.51;59.16;100636.95;1585343;88;21598;-85
2022/08/16 09:27:35;;;;;;;16.77;12.35;;;;;;;28.48;58.87;100640.70;1589621;88;21127;-85
2022/08/16 09:30:01;;;;;;;13.03;11.73;;;;;;;28.49;58.74;100640.22;1592050;88;21169;-85
2022/08/16 09:32:29;;;;;;;11.95;10.82;;;;;;;28.51;58.83;100634.24;1590059;88;21763;-85
2022/08/16 09:34:55;;;;;;;12.82;11.03;;;;;;;28.57;58.82;100634.44;1588678;88;21091;-85
2022/08/16 09:37:22;;;;;;;13.58;11.00;;;;;;;28.64;58.54;100630.45;1586076;88;21109;-85
2022/08/16 09:39:49;;;;;;;18.62;11.05;;;;;;;28.69;58.54;100628.39;1591249;88;21557;-85
2022/08/16 09:42:15;;;;;;;15.60;10.90;;;;;;;28.79;58.58;100630.13;1589382;88;21586;-85
2022/08/16 09:44:42;;;;;;;12.80;10.72;;;;;;;28.89;58.29;100631.41;1589946;88;21772;-85
2022/08/16 09:47:09;;;;;;;16.05;11.22;;;;;;;28.97;57.87;100628.28;1592791;88;21135;-85
2022/08/16 09:49:35;;;;;;;13.80;10.38;;;;;;;29.04;57.54;100627.00;1594183;88;21906;-85
2022/08/16 09:52:03;;;;;;;14.15;11.57;;;;;;;29.07;57.15;100627.72;1593705;88;21118;-85
2022/08/16 09:54:30;;;;;;;16.05;10.95;;;;;;;29.10;56.97;100626.66;1592704;88;21113;-85
2022/08/16 09:56:57;;;;;;;11.12;9.95;;;;;;;29.17;57.08;100629.47;1593657;88;21757;-85
2022/08/16 09:59:24;;;;;;;10.82;9.60;;;;;;;29.28;56.68;100626.14;1593585;88;21408;-85
2022/08/16 10:01:51;;;;;;;15.48;10.03;;;;;;;29.34;56.47;100629.89;1571551;89;21123;-85
2022/08/16 10:04:18;;;;;;;15.50;9.30;;;;;;;29.42;56.46;100627.63;1590774;88;21137;-85
2022/08/16 10:06:45;;;;;;;17.90;10.18;;;;;;;29.49;56.32;100631.34;1582068;88;21187;-85
2022/08/16 10:09:13;;;;;;;10.18;9.23;;;;;;;29.53;56.06;100632.45;1598358;87;23220;-85
2022/08/16 10:14:29;;;;;;;11.30;9.30;;;;;;;29.65;55.78;100630.38;1596870;88;21149;-85
2022/08/16 10:16:56;;;;;;;10.00;8.83;;;;;;;29.69;55.04;100630.22;1592540;88;21074;-85
2022/08/16 10:19:23;;;;;;;11.22;9.48;;;;;;;29.65;54.85;100620.89;1617817;87;21101;-85
2022/08/16 10:21:49;;;;;;;10.38;9.38;;;;;;;29.71;54.64;100629.65;1618113;88;22192;-85
2022/08/16 10:24:18;;;;;;;15.00;9.85;;;;;;;29.76;54.70;100632.53;1620209;88;21105;-85
2022/08/16 10:26:48;;;;;;;16.48;9.10;;;;;;;29.81;54.29;100625.50;1598347;88;21125;-85
2022/08/16 10:29:16;;;;;;;10.63;9.18;;;;;;;29.82;54.02;100624.03;1620596;88;21111;-85
2022/08/16 10:31:43;;;;;;;10.25;8.28;;;;;;;29.87;53.71;100632.41;1616648;87;21150;-85
2022/08/16 10:34:09;;;;;;;11.50;8.88;;;;;;;29.92;53.54;100622.14;1620666;88;21755;-85
2022/08/16 10:36:36;;;;;;;10.82;9.00;;;;;;;29.97;53.19;100629.05;1601625;88;22099;-85
2022/08/16 10:39:03;;;;;;;11.10;8.78;;;;;;;30.01;52.87;100630.65;1620741;88;21112;-85
2022/08/16 10:41:31;;;;;;;12.75;8.70;;;;;;;30.06;52.77;100628.14;1618367;87;21074;-85
2022/08/16 10:43:58;;;;;;;10.65;8.95;;;;;;;30.08;52.26;100624.36;1621550;87;22230;-85
2022/08/16 10:46:25;;;;;;;14.03;8.75;;;;;;;30.13;52.22;100622.75;1614464;88;22429;-85
2022/08/16 10:48:52;;;;;;;11.22;8.30;;;;;;;30.19;51.96;100616.95;1596317;88;21102;-85
2022/08/16 10:51:18;;;;;;;9.30;8.38;;;;;;;30.27;51.89;100621.43;1614621;88;21118;-85
2022/08/16 10:53:45;;;;;;;8.70;7.80;;;;;;;30.37;51.77;100619.97;1595961;88;22342;-85
2022/08/16 10:56:13;;;;;;;11.00;8.88;;;;;;;30.48;51.59;100622.50;1604229;88;21678;-85
2022/08/16 10:58:40;;;;;;;13.45;8.83;;;;;;;30.55;51.21;100624.75;1589626;88;21916;-85
2022/08/16 11:01:08;;;;;;;10.40;8.18;;;;;;;30.59;50.83;100609.14;1587170;88;21336;-85
2022/08/16 11:03:36;;;;;;;12.35;8.50;;;;;;;30.67;50.77;100619.08;1587425;88;22311;-85
2022/08/16 11:06:04;;;;;;;10.72;9.23;;;;;;;30.69;50.60;100619.86;1587201;88;21141;-86
2022/08/16 11:08:32;;;;;;;8.95;8.05;;;;;;;30.69;50.28;100618.95;1592631;88;21073;-86
2022/08/16 11:11:00;;;;;;;16.27;9.90;;;;;;;30.64;50.23;100615.67;1592613;88;22664;-85
2022/08/16 11:13:27;;;;;;;12.95;8.90;;;;;;;30.58;50.14;100614.20;1599874;88;21133;-85
2022/08/16 11:15:56;;;;;;;17.50;9.40;;;;;;;30.56;50.18;100622.94;1600128;88;21106;-85
2022/08/16 11:18:23;;;;;;;12.85;8.53;;;;;;;30.55;50.14;100617.96;1596084;89;21150;-85